createdAt,value
2023-11-24T00:01:31.112Z,28.20
2023-11-24T00:06:41.320Z,32.33
2023-11-24T00:11:50.088Z,34.03
2023-11-24T00:16:59.039Z,29.67
2023-11-24T00:22:09.201Z,25.67
2023-11-24T00:27:13.031Z,25.77
2023-11-24T00:32:21.784Z,23.92
2023-11-24T00:37:31.935Z,29.95
2023-11-24T00:42:36.625Z,24.75
2023-11-24T00:47:45.362Z,34.55
2023-11-24T00:52:56.150Z,29.40
2023-11-24T00:58:01.200Z,27.88
2023-11-24T01:03:06.348Z,26.60
2023-11-24T01:08:11.949Z,31.63
2023-11-24T01:13:20.822Z,25.15
2023-11-24T01:18:29.610Z,26.45
2023-11-24T01:23:36.429Z,33.95
2023-11-24T01:28:45.661Z,29.60
2023-11-24T01:33:54.369Z,23.08
2023-11-24T01:39:06.330Z,25.95
2023-11-24T01:44:10.606Z,31.95
2023-11-24T01:49:14.391Z,30.17
2023-11-24T01:54:27.243Z,30.55
2023-11-24T01:59:37.144Z,25.15
2023-11-24T02:04:45.878Z,23.73
2023-11-24T02:09:56.877Z,24.48
2023-11-24T02:15:06.601Z,29.43
2023-11-24T02:20:17.547Z,25.80
2023-11-24T02:25:27.774Z,29.38
2023-11-24T02:30:37.052Z,32.15
2023-11-24T02:35:45.781Z,31.85
2023-11-24T02:40:56.016Z,24.30
2023-11-24T02:46:04.723Z,37.75
2023-11-24T02:51:15.267Z,29.17
2023-11-24T02:56:27.648Z,33.38
2023-11-24T03:01:36.990Z,34.13
2023-11-24T03:06:44.042Z,33.05
2023-11-24T03:16:58.795Z,35.95
2023-11-24T03:22:08.421Z,40.05
2023-11-24T03:27:13.646Z,37.22
2023-11-24T03:32:22.384Z,36.47
2023-11-24T03:37:31.090Z,38.78
2023-11-24T03:42:42.153Z,41.42
2023-11-24T03:47:52.149Z,46.00
2023-11-24T03:53:02.075Z,46.08
2023-11-24T03:58:12.139Z,38.55
2023-11-24T04:03:20.820Z,38.08
2023-11-24T04:08:29.514Z,33.00
2023-11-24T04:13:39.607Z,38.15
2023-11-24T04:18:48.959Z,35.13
2023-11-24T04:23:52.837Z,37.97
2023-11-24T04:29:03.828Z,33.60
2023-11-24T04:34:12.699Z,35.77
2023-11-24T04:39:22.007Z,40.85
2023-11-24T04:44:32.447Z,36.83
2023-11-24T04:49:41.178Z,36.80
2023-11-24T04:54:51.355Z,35.10
2023-11-24T05:00:02.123Z,33.00
2023-11-24T05:05:11.214Z,33.17
2023-11-24T05:10:19.933Z,39.88
2023-11-24T05:15:30.037Z,37.78
2023-11-24T05:20:39.070Z,38.47
2023-11-24T05:25:48.207Z,35.40
2023-11-24T05:30:58.300Z,39.30
2023-11-24T05:36:10.749Z,37.20
2023-11-24T05:41:20.135Z,35.88
2023-11-24T05:46:30.376Z,33.85
2023-11-24T05:51:39.788Z,42.42
2023-11-24T05:56:44.127Z,37.40
2023-11-24T06:01:54.371Z,31.48
2023-11-24T06:06:58.340Z,36.35
2023-11-24T06:12:07.803Z,34.15
2023-11-24T06:17:17.894Z,43.58
2023-11-24T06:22:26.601Z,44.92
2023-11-24T06:27:35.640Z,51.75
2023-11-24T06:32:45.831Z,42.42
2023-11-24T06:37:54.629Z,48.40
2023-11-24T06:43:03.416Z,52.33
2023-11-24T06:48:13.852Z,54.28
2023-11-24T06:53:22.557Z,50.25
2023-11-24T06:58:31.272Z,43.40
2023-11-24T07:03:41.417Z,49.95
2023-11-24T07:08:53.794Z,44.65
2023-11-24T07:14:02.965Z,49.08
2023-11-24T07:19:13.261Z,36.40
2023-11-24T07:24:22.039Z,45.25
2023-11-24T07:29:30.677Z,35.65
2023-11-24T07:34:40.785Z,20.00
2023-11-24T07:39:49.819Z,18.98
2023-11-24T07:44:58.573Z,5.97
2023-11-24T07:50:09.779Z,7.00
2023-11-24T07:55:18.582Z,7.22
2023-11-24T08:00:27.877Z,3.85
2023-11-24T08:05:37.999Z,3.53
2023-11-24T08:10:42.339Z,4.45
2023-11-24T08:15:51.154Z,3.70
2023-11-24T08:21:03.361Z,4.78
2023-11-24T08:26:16.425Z,2.85
2023-11-24T08:31:25.944Z,3.72
2023-11-24T08:36:36.076Z,3.22
2023-11-24T08:41:49.764Z,7.93
2023-11-24T08:46:58.594Z,1.77
2023-11-24T08:52:10.667Z,2.25
2023-11-24T08:57:19.529Z,1.42
2023-11-24T09:02:23.914Z,1.05
2023-11-24T09:07:34.839Z,1.70
2023-11-24T09:12:38.699Z,0.50
2023-11-24T09:17:47.543Z,2.67
2023-11-24T09:22:57.640Z,0.75
2023-11-24T09:28:01.622Z,0.43
2023-11-24T09:33:10.490Z,3.22
2023-11-24T09:38:15.682Z,0.80
2023-11-24T09:43:25.191Z,0.50
2023-11-24T09:48:34.639Z,1.02
2023-11-24T09:53:45.211Z,0.98
2023-11-24T09:58:54.007Z,0.70
2023-11-24T10:04:02.948Z,1.77
2023-11-24T10:09:15.931Z,0.60
2023-11-24T10:14:25.142Z,1.40
2023-11-24T10:19:33.861Z,2.95
2023-11-24T10:24:43.988Z,0.57
2023-11-24T10:29:48.351Z,2.03
2023-11-24T10:34:59.135Z,1.80
2023-11-24T10:40:15.056Z,0.90
2023-11-24T10:45:24.731Z,1.48
2023-11-24T10:50:38.382Z,1.38
2023-11-24T10:55:50.638Z,2.10
2023-11-24T11:00:59.556Z,0.88
2023-11-24T11:06:14.073Z,3.35
2023-11-24T11:11:46.312Z,2.00
2023-11-24T11:16:55.136Z,3.08
2023-11-24T11:22:08.557Z,2.05
2023-11-24T11:27:27.819Z,1.42
2023-11-24T11:32:39.112Z,2.70
2023-11-24T11:37:48.411Z,2.08
2023-11-24T11:43:00.231Z,4.60
2023-11-24T11:48:10.445Z,2.53
2023-11-24T11:53:19.413Z,2.75
2023-11-24T11:58:26.316Z,2.13
2023-11-24T12:03:30.224Z,7.43
2023-11-24T12:08:40.095Z,4.13
2023-11-24T12:13:52.131Z,1.67
2023-11-24T12:19:05.617Z,1.38
2023-11-24T12:24:17.185Z,4.28
2023-11-24T12:29:31.350Z,1.75
2023-11-24T12:34:46.459Z,2.78
2023-11-24T12:39:55.868Z,2.90
2023-11-24T12:45:09.335Z,3.38
2023-11-24T12:50:21.896Z,2.88
2023-11-24T12:55:26.038Z,3.28
2023-11-24T13:00:31.208Z,0.90
2023-11-24T13:05:35.783Z,2.58
2023-11-24T13:10:46.625Z,1.20
2023-11-24T13:15:58.178Z,1.67
2023-11-24T13:31:29.994Z,4.15
2023-11-24T13:36:35.198Z,7.43
2023-11-24T13:41:44.437Z,3.53
2023-11-24T13:46:55.618Z,1.40
2023-11-24T13:52:04.884Z,1.38
2023-11-24T13:57:15.082Z,3.10
2023-11-24T14:02:26.686Z,10.35
2023-11-24T14:07:35.493Z,1.52
2023-11-24T14:12:46.905Z,4.22
2023-11-24T14:23:05.781Z,2.03
2023-11-24T14:28:15.896Z,1.40
2023-11-24T14:33:22.974Z,4.30
2023-11-24T14:38:33.906Z,5.57
2023-11-24T14:43:42.824Z,4.60
2023-11-24T14:48:53.952Z,4.25
2023-11-24T14:54:03.023Z,2.47
2023-11-24T14:59:07.041Z,4.93
2023-11-24T15:04:20.390Z,2.58
2023-11-24T15:09:31.352Z,93.65
2023-11-24T15:14:44.783Z,12.43
2023-11-24T15:19:55.339Z,31.88
2023-11-24T15:25:04.293Z,8.70
2023-11-24T15:30:14.146Z,7.90
2023-11-24T15:35:19.341Z,2.85
2023-11-24T15:40:28.084Z,4.97
2023-11-24T15:45:37.254Z,6.55
2023-11-24T15:50:47.308Z,5.57
2023-11-24T15:55:56.030Z,4.38
2023-11-24T16:01:07.302Z,8.70
2023-11-24T16:06:20.562Z,3.13
2023-11-24T16:11:27.576Z,6.40
2023-11-24T16:16:44.941Z,4.28
2023-11-24T16:21:56.849Z,9.00
2023-11-24T16:27:06.811Z,4.63
2023-11-24T16:32:15.658Z,7.13
2023-11-24T16:37:25.931Z,6.38
2023-11-24T16:42:34.711Z,7.57
2023-11-24T16:47:43.934Z,6.05
2023-11-24T16:52:56.646Z,11.30
2023-11-24T16:58:06.992Z,11.88
2023-11-24T17:03:16.856Z,11.30
2023-11-24T17:08:27.159Z,19.50
2023-11-24T17:13:35.982Z,8.32
2023-11-24T17:18:44.832Z,4.38
2023-11-24T17:23:54.986Z,6.25
2023-11-24T17:29:02.363Z,4.47
2023-11-24T17:34:11.429Z,6.75
2023-11-24T17:39:23.680Z,7.57
2023-11-24T17:44:34.774Z,7.20
2023-11-24T17:49:44.737Z,8.55
2023-11-24T17:54:50.071Z,8.93
2023-11-24T17:59:58.998Z,10.73
2023-11-24T18:05:05.015Z,8.90
2023-11-24T18:10:17.464Z,7.40
2023-11-24T18:15:21.665Z,9.82
2023-11-24T18:20:30.367Z,3.83
2023-11-24T18:25:39.737Z,4.97
2023-11-24T18:30:49.081Z,4.32
2023-11-24T18:35:57.855Z,8.13
2023-11-24T18:41:03.329Z,3.80
2023-11-24T18:46:12.362Z,3.90
2023-11-24T18:51:21.083Z,5.53
2023-11-24T18:56:32.062Z,4.15
2023-11-24T19:01:40.914Z,4.53
2023-11-24T19:06:49.703Z,5.63
2023-11-24T19:11:59.822Z,9.02
2023-11-24T19:17:08.583Z,7.20
2023-11-24T19:22:12.466Z,7.85
2023-11-24T19:27:17.790Z,8.38
2023-11-24T19:32:26.869Z,11.18
2023-11-24T19:37:35.654Z,13.38
2023-11-24T19:42:45.895Z,31.23
2023-11-24T19:47:54.682Z,26.63
2023-11-24T19:52:58.502Z,23.45
2023-11-24T19:58:10.153Z,11.80
2023-11-24T20:03:19.044Z,6.18
2023-11-24T20:08:22.777Z,8.85
2023-11-24T20:13:33.665Z,4.38
2023-11-24T20:18:45.550Z,4.57
2023-11-24T20:23:54.460Z,6.85
2023-11-24T20:29:04.631Z,5.07
2023-11-24T20:34:13.964Z,3.83
2023-11-24T20:39:23.244Z,4.97
2023-11-24T20:44:34.704Z,4.28
2023-11-24T20:49:38.973Z,4.00
2023-11-24T20:54:47.683Z,4.70
2023-11-24T20:59:57.715Z,6.88
2023-11-24T21:05:09.014Z,4.68
2023-11-24T21:10:17.999Z,3.38
2023-11-24T21:15:28.299Z,4.18
2023-11-24T21:20:37.061Z,3.42
2023-11-24T21:25:45.767Z,3.08
2023-11-24T21:30:56.081Z,4.82
2023-11-24T21:36:05.361Z,14.48
2023-11-24T21:41:20.655Z,7.70
2023-11-24T21:46:31.031Z,10.82
2023-11-24T21:51:41.047Z,6.75
2023-11-24T21:56:49.786Z,8.40
2023-11-24T22:01:59.888Z,6.80
2023-11-24T22:07:03.757Z,4.05
2023-11-24T22:12:12.419Z,2.88
2023-11-24T22:17:22.567Z,6.45
2023-11-24T22:22:32.988Z,7.07
2023-11-24T22:27:42.148Z,3.97
2023-11-24T22:32:52.309Z,4.97
2023-11-24T22:38:02.755Z,3.20
2023-11-24T22:43:11.470Z,3.38
2023-11-24T22:48:17.295Z,4.63
2023-11-24T22:53:26.023Z,3.30
2023-11-24T22:58:35.080Z,8.23
2023-11-24T23:03:45.698Z,6.07
2023-11-24T23:08:56.369Z,1.73
2023-11-24T23:14:05.128Z,3.47
2023-11-24T23:19:10.273Z,2.08
2023-11-24T23:24:18.939Z,2.53
2023-11-24T23:29:27.885Z,4.13
2023-11-24T23:34:38.029Z,1.60
2023-11-24T23:39:46.720Z,1.90
2023-11-24T23:44:55.481Z,3.33
2023-11-24T23:50:07.049Z,1.50
2023-11-24T23:55:15.975Z,1.70
